createdAt,value
2023-06-01T00:01:53.315Z,98019.81
2023-06-01T00:04:19.857Z,98016.97
2023-06-01T00:06:46.457Z,98015.16
2023-06-01T00:09:12.966Z,98011.19
2023-06-01T00:11:39.513Z,98011.84
2023-06-01T00:14:06.165Z,98014.00
2023-06-01T00:16:32.797Z,98008.00
2023-06-01T00:19:01.618Z,98009.97
2023-06-01T00:21:28.714Z,98007.66
2023-06-01T00:23:55.475Z,98011.66
2023-06-01T00:26:22.270Z,98014.78
2023-06-01T00:28:48.910Z,98017.63
2023-06-01T00:31:15.496Z,98015.63
2023-06-01T00:33:42.052Z,98012.00
2023-06-01T00:36:08.749Z,98016.97
2023-06-01T00:38:35.336Z,98008.31
2023-06-01T00:41:02.182Z,98006.31
2023-06-01T00:43:29.004Z,98004.00
2023-06-01T00:45:55.519Z,98006.00
2023-06-01T00:48:24.261Z,97998.88
2023-06-01T00:50:50.895Z,98002.34
2023-06-01T00:53:20.943Z,98001.50
2023-06-01T00:55:47.790Z,97999.16
2023-06-01T00:58:14.547Z,97997.81
2023-06-01T01:00:41.312Z,98001.00
2023-06-01T01:03:11.550Z,97994.16
2023-06-01T01:05:39.066Z,97987.97
2023-06-01T01:08:21.269Z,97994.97
2023-06-01T01:10:50.565Z,97995.59
2023-06-01T01:13:24.856Z,97999.75
2023-06-01T01:16:13.644Z,97995.28
2023-06-01T01:19:26.032Z,97999.69
2023-06-01T01:22:16.944Z,98002.91
2023-06-01T01:24:52.455Z,98001.91
2023-06-01T01:27:27.533Z,98002.66
2023-06-01T01:29:54.328Z,97998.78
2023-06-01T01:32:21.431Z,97997.81
2023-06-01T01:34:48.035Z,97988.69
2023-06-01T01:37:14.533Z,97994.63
2023-06-01T01:39:41.259Z,97990.31
2023-06-01T01:42:08.512Z,97999.31
2023-06-01T01:44:35.069Z,97998.50
2023-06-01T01:47:16.056Z,97990.19
2023-06-01T01:49:47.630Z,97983.69
2023-06-01T01:52:18.309Z,97978.22
2023-06-01T01:54:46.039Z,97979.38
2023-06-01T01:57:13.640Z,97968.56
2023-06-01T01:59:40.263Z,97975.41
2023-06-01T02:02:06.857Z,97978.53
2023-06-01T02:04:33.744Z,97977.53
2023-06-01T02:07:00.492Z,97979.72
2023-06-01T02:09:27.629Z,97973.41
2023-06-01T02:11:54.234Z,97971.53
2023-06-01T02:14:20.872Z,97972.19
2023-06-01T02:16:47.477Z,97967.69
2023-06-01T02:19:16.528Z,97966.56
2023-06-01T02:21:43.841Z,97961.56
2023-06-01T02:24:10.598Z,97964.84
2023-06-01T02:26:37.105Z,97966.88
2023-06-01T02:29:06.033Z,97964.19
2023-06-01T02:31:33.557Z,97960.94
2023-06-01T02:34:00.609Z,97962.41
2023-06-01T02:36:29.202Z,97962.41
2023-06-01T02:38:57.279Z,97958.00
2023-06-01T02:41:24.024Z,97956.03
2023-06-01T02:43:53.136Z,97956.03
2023-06-01T02:46:20.362Z,97953.72
2023-06-01T02:48:47.170Z,97967.69
2023-06-01T02:51:13.791Z,97960.75
2023-06-01T02:53:41.142Z,97960.16
2023-06-01T02:56:07.895Z,97960.16
2023-06-01T02:58:34.499Z,97954.34
2023-06-01T03:01:01.887Z,97961.22
2023-06-01T03:03:28.748Z,97957.09
2023-06-01T03:05:56.301Z,97960.72
2023-06-01T03:08:25.750Z,97961.03
2023-06-01T03:10:52.324Z,97963.03
2023-06-01T03:13:18.864Z,97959.41
2023-06-01T03:15:45.771Z,97961.34
2023-06-01T03:18:12.679Z,97955.09
2023-06-01T03:20:39.332Z,97951.81
2023-06-01T03:23:06.010Z,97959.31
2023-06-01T03:25:34.414Z,97967.22
2023-06-01T03:28:01.151Z,97959.84
2023-06-01T03:30:27.675Z,97961.97
2023-06-01T03:32:54.330Z,97973.72
2023-06-01T03:35:20.901Z,97969.16
2023-06-01T03:37:47.995Z,97967.84
2023-06-01T03:40:14.968Z,97964.06
2023-06-01T03:42:46.095Z,97970.91
2023-06-01T03:45:13.683Z,97972.44
2023-06-01T03:47:40.533Z,97972.94
2023-06-01T03:50:08.358Z,97978.59
2023-06-01T03:52:34.955Z,97978.28
2023-06-01T03:55:11.903Z,97977.00
2023-06-01T03:57:38.864Z,97979.44
2023-06-01T04:00:20.933Z,97970.00
2023-06-01T04:03:00.361Z,97978.19
2023-06-01T04:05:27.676Z,97976.22
2023-06-01T04:07:55.514Z,97978.03
2023-06-01T04:10:22.155Z,97977.38
2023-06-01T04:12:52.063Z,97977.38
2023-06-01T04:15:20.128Z,97971.75
2023-06-01T04:17:46.773Z,97966.59
2023-06-01T04:20:15.104Z,97975.56
2023-06-01T04:22:42.062Z,97970.72
2023-06-01T04:25:13.099Z,97970.09
2023-06-01T04:27:45.794Z,97969.41
2023-06-01T04:30:12.757Z,97978.69
2023-06-01T04:32:39.339Z,97974.22
2023-06-01T04:35:06.596Z,97975.72
2023-06-01T04:37:42.613Z,97979.91
2023-06-01T04:40:10.880Z,97977.72
2023-06-01T04:42:42.254Z,97977.38
2023-06-01T04:45:10.462Z,97983.69
2023-06-01T04:47:41.403Z,97986.31
2023-06-01T04:50:11.307Z,97986.31
2023-06-01T04:52:41.121Z,97976.47
2023-06-01T04:55:08.601Z,97976.09
2023-06-01T04:57:36.554Z,97976.75
2023-06-01T05:00:07.297Z,97972.19
2023-06-01T05:02:33.904Z,97976.50
2023-06-01T05:05:00.558Z,97968.91
2023-06-01T05:07:27.084Z,97971.00
2023-06-01T05:09:53.618Z,97973.97
2023-06-01T05:12:21.772Z,97971.06
2023-06-01T05:14:48.620Z,97972.16
2023-06-01T05:17:15.240Z,97974.19
2023-06-01T05:19:42.353Z,97969.59
2023-06-01T05:22:08.910Z,97971.03
2023-06-01T05:24:35.430Z,97970.59
2023-06-01T05:27:02.060Z,97963.03
2023-06-01T05:29:28.568Z,97971.59
2023-06-01T05:31:55.137Z,97973.16
2023-06-01T05:34:22.155Z,97972.31
2023-06-01T05:36:49.747Z,97963.06
2023-06-01T05:39:16.435Z,97968.19
2023-06-01T05:41:42.987Z,97970.25
2023-06-01T05:44:09.515Z,97966.31
2023-06-01T05:46:36.038Z,97962.78
2023-06-01T05:49:02.587Z,97959.75
2023-06-01T05:51:29.089Z,97960.00
2023-06-01T05:53:55.757Z,97962.63
2023-06-01T05:56:22.261Z,97969.28
2023-06-01T05:58:53.990Z,97965.81
2023-06-01T06:01:21.165Z,97964.09
2023-06-01T06:03:48.463Z,97965.81
2023-06-01T06:06:15.201Z,97958.47
2023-06-01T06:08:41.733Z,97952.25
2023-06-01T06:11:08.298Z,97950.22
2023-06-01T06:13:34.842Z,97952.94
2023-06-01T06:16:01.390Z,97960.22
2023-06-01T06:18:27.968Z,97963.13
2023-06-01T06:20:54.463Z,97955.69
2023-06-01T06:23:22.644Z,97946.22
2023-06-01T06:25:49.650Z,97954.91
2023-06-01T06:28:16.621Z,97956.56
2023-06-01T06:30:43.179Z,97946.50
2023-06-01T06:33:11.567Z,97956.63
2023-06-01T06:35:42.355Z,97954.81
2023-06-01T06:38:08.935Z,97956.25
2023-06-01T06:40:35.550Z,97954.59
2023-06-01T06:43:02.475Z,97954.59
2023-06-01T06:45:29.031Z,97957.09
2023-06-01T06:47:55.657Z,97955.03
2023-06-01T06:50:22.352Z,97955.03
2023-06-01T06:52:48.922Z,97956.25
2023-06-01T06:55:15.794Z,97959.56
2023-06-01T06:57:42.300Z,97953.16
2023-06-01T07:00:09.774Z,97948.34
2023-06-01T07:02:36.411Z,97955.81
2023-06-01T07:05:05.080Z,97952.06
2023-06-01T07:07:31.696Z,97949.41
2023-06-01T07:09:58.224Z,97950.78
2023-06-01T07:12:24.813Z,97954.28
2023-06-01T07:14:53.435Z,97951.16
2023-06-01T07:17:21.008Z,97943.66
2023-06-01T07:19:47.791Z,97951.16
2023-06-01T07:22:14.849Z,97943.56
2023-06-01T07:24:41.555Z,97945.25
2023-06-01T07:27:08.852Z,97936.66
2023-06-01T07:29:35.850Z,97939.88
2023-06-01T07:32:02.540Z,97936.34
2023-06-01T07:34:29.193Z,97938.63
2023-06-01T07:37:08.868Z,97930.88
2023-06-01T07:39:43.271Z,97936.78
2023-06-01T07:42:09.847Z,97934.88
2023-06-01T07:44:36.772Z,97940.44
2023-06-01T07:47:03.536Z,97939.53
2023-06-01T07:49:30.396Z,97935.13
2023-06-01T07:51:57.748Z,97936.84
2023-06-01T07:54:24.347Z,97940.50
2023-06-01T07:56:51.003Z,97937.69
2023-06-01T07:59:17.539Z,97937.84
2023-06-01T08:01:44.336Z,97932.84
2023-06-01T08:04:11.871Z,97928.41
2023-06-01T08:06:39.367Z,97930.81
2023-06-01T08:09:06.734Z,97932.50
2023-06-01T08:11:33.372Z,97924.34
2023-06-01T08:14:01.126Z,97930.28
2023-06-01T08:16:28.022Z,97928.09
2023-06-01T08:18:54.729Z,97927.78
2023-06-01T08:21:21.438Z,97924.78
2023-06-01T08:23:48.557Z,97921.22
2023-06-01T08:26:15.426Z,97924.16
2023-06-01T08:28:42.261Z,97928.16
2023-06-01T08:31:08.989Z,97919.69
2023-06-01T08:33:35.602Z,97914.31
2023-06-01T08:36:02.515Z,97918.91
2023-06-01T08:38:33.472Z,97915.03
2023-06-01T08:41:00.432Z,97910.41
2023-06-01T08:43:26.958Z,97905.59
2023-06-01T08:45:53.629Z,97907.59
2023-06-01T08:48:22.433Z,97907.25
2023-06-01T08:50:52.126Z,97908.66
2023-06-01T08:53:19.541Z,97904.78
2023-06-01T08:55:47.386Z,97910.66
2023-06-01T08:58:13.959Z,97906.31
2023-06-01T09:00:40.546Z,97906.78
2023-06-01T09:03:07.909Z,97901.72
2023-06-01T09:05:34.538Z,97905.56
2023-06-01T09:08:01.187Z,97894.88
2023-06-01T09:10:28.038Z,97896.44
2023-06-01T09:12:56.049Z,97893.09
2023-06-01T09:15:23.156Z,97882.78
2023-06-01T09:17:51.345Z,97890.88
2023-06-01T09:20:25.427Z,97886.00
2023-06-01T09:22:53.806Z,97879.88
2023-06-01T09:25:30.584Z,97873.59
2023-06-01T09:27:58.000Z,97881.47
2023-06-01T09:30:25.664Z,97878.56
2023-06-01T09:32:54.111Z,97879.22
2023-06-01T09:35:40.902Z,97868.13
2023-06-01T09:38:07.581Z,97874.47
2023-06-01T09:40:34.970Z,97869.03
2023-06-01T09:43:03.500Z,97868.88
2023-06-01T09:45:31.677Z,97876.44
2023-06-01T09:48:16.681Z,97867.56
2023-06-01T09:50:44.031Z,97865.91
2023-06-01T09:53:10.611Z,97872.50
2023-06-01T09:55:37.158Z,97864.44
2023-06-01T09:58:22.874Z,97865.78
2023-06-01T10:00:50.815Z,97859.56
2023-06-01T10:03:18.077Z,97859.22
2023-06-01T10:05:45.581Z,97849.63
2023-06-01T10:08:13.495Z,97850.84
2023-06-01T10:10:40.964Z,97849.97
2023-06-01T10:13:11.501Z,97846.50
2023-06-01T10:15:38.032Z,97839.75
2023-06-01T10:18:05.555Z,97844.91
2023-06-01T10:20:36.214Z,97841.25
2023-06-01T10:23:03.770Z,97846.78
2023-06-01T10:25:49.566Z,97833.16
2023-06-01T10:28:16.236Z,97834.38
2023-06-01T10:30:42.803Z,97838.22
2023-06-01T10:33:09.490Z,97833.59
2023-06-01T10:35:41.902Z,97821.38
2023-06-01T10:38:08.377Z,97823.91
2023-06-01T10:40:35.396Z,97822.19
2023-06-01T10:43:01.978Z,97823.06
2023-06-01T10:45:34.458Z,97823.28
2023-06-01T10:48:01.990Z,97816.28
2023-06-01T10:50:28.572Z,97816.38
2023-06-01T10:52:55.396Z,97808.50
2023-06-01T10:55:24.825Z,97801.44
2023-06-01T10:57:53.241Z,97806.44
2023-06-01T11:00:29.329Z,97802.31
2023-06-01T11:03:01.037Z,97802.78
2023-06-01T11:05:48.106Z,97793.28
2023-06-01T11:08:17.887Z,97796.72
2023-06-01T11:10:59.749Z,97790.88
2023-06-01T11:13:31.095Z,97788.53
2023-06-01T11:16:20.034Z,97788.19
2023-06-01T11:18:59.482Z,97785.28
2023-06-01T11:21:29.649Z,97776.56
2023-06-01T11:23:59.858Z,97782.41
2023-06-01T11:26:42.841Z,97776.31
2023-06-01T11:29:10.627Z,97773.19
2023-06-01T11:31:38.818Z,97771.66
2023-06-01T11:34:05.595Z,97778.78
2023-06-01T11:36:37.796Z,97770.63
2023-06-01T11:39:16.804Z,97761.34
2023-06-01T11:41:47.319Z,97764.41
2023-06-01T11:44:13.831Z,97759.09
2023-06-01T11:46:51.779Z,97758.03
2023-06-01T11:49:18.307Z,97752.03
2023-06-01T11:51:44.808Z,97750.03
2023-06-01T11:54:11.394Z,97747.88
2023-06-01T11:56:40.271Z,97749.00
2023-06-01T11:59:09.781Z,97745.06
2023-06-01T12:01:43.672Z,97738.81
2023-06-01T12:04:17.337Z,97741.69
2023-06-01T12:06:44.183Z,97743.81
2023-06-01T12:09:10.800Z,97734.56
2023-06-01T12:11:38.446Z,97729.91
2023-06-01T12:14:07.036Z,97728.13
2023-06-01T12:16:55.699Z,97727.09
2023-06-01T12:19:22.720Z,97726.50
2023-06-01T12:21:51.887Z,97730.13
2023-06-01T12:24:32.158Z,97730.22
2023-06-01T12:26:59.805Z,97733.88
2023-06-01T12:29:39.596Z,97716.44
2023-06-01T12:32:06.533Z,97714.03
2023-06-01T12:34:33.051Z,97715.81
2023-06-01T12:36:59.659Z,97720.81
2023-06-01T12:39:37.721Z,97715.38
2023-06-01T12:42:06.211Z,97707.97
2023-06-01T12:44:36.537Z,97706.16
2023-06-01T12:47:04.933Z,97706.31
2023-06-01T12:49:31.548Z,97705.19
2023-06-01T12:51:58.176Z,97700.19
2023-06-01T12:54:24.709Z,97696.22
2023-06-01T12:56:51.850Z,97703.06
2023-06-01T12:59:18.467Z,97691.34
2023-06-01T13:01:45.082Z,97690.81
2023-06-01T13:04:11.933Z,97690.63
2023-06-01T13:06:40.330Z,97693.00
2023-06-01T13:09:07.779Z,97682.22
2023-06-01T13:11:34.446Z,97671.59
2023-06-01T13:14:01.094Z,97675.47
2023-06-01T13:16:28.414Z,97676.84
2023-06-01T13:18:55.550Z,97667.44
2023-06-01T13:21:22.278Z,97675.44
2023-06-01T13:23:49.306Z,97671.72
2023-06-01T13:26:16.047Z,97668.75
2023-06-01T13:28:42.722Z,97677.00
2023-06-01T13:31:09.695Z,97667.91
2023-06-01T13:33:36.257Z,97661.13
2023-06-01T13:36:03.072Z,97659.50
2023-06-01T13:38:29.771Z,97656.81
2023-06-01T13:40:56.458Z,97653.19
2023-06-01T13:43:23.096Z,97649.13
2023-06-01T13:45:49.648Z,97648.88
2023-06-01T13:48:18.624Z,97653.44
2023-06-01T13:50:47.204Z,97634.88
2023-06-01T13:53:13.743Z,97634.13
2023-06-01T13:55:40.749Z,97633.75
2023-06-01T13:58:07.271Z,97627.41
2023-06-01T14:00:34.082Z,97629.03
2023-06-01T14:03:01.070Z,97622.91
2023-06-01T14:05:36.072Z,97621.09
2023-06-01T14:08:11.521Z,97624.84
2023-06-01T14:10:38.133Z,97610.69
2023-06-01T14:13:04.717Z,97603.41
2023-06-01T14:15:31.833Z,97607.75
2023-06-01T14:17:58.463Z,97605.63
2023-06-01T14:20:25.053Z,97588.75
2023-06-01T14:22:51.602Z,97606.19
2023-06-01T14:25:18.314Z,97589.09
2023-06-01T14:27:44.807Z,97593.53
2023-06-01T14:30:11.884Z,97591.41
2023-06-01T14:32:38.596Z,97589.34
2023-06-01T14:35:06.729Z,97584.63
2023-06-01T14:37:48.099Z,97595.16
2023-06-01T14:40:16.046Z,97582.34
2023-06-01T14:42:42.622Z,97584.06
2023-06-01T14:45:09.393Z,97579.28
2023-06-01T14:47:36.022Z,97581.97
2023-06-01T14:50:02.657Z,97561.72
2023-06-01T14:52:29.171Z,97569.53
2023-06-01T14:54:55.818Z,97568.94
2023-06-01T14:57:22.473Z,97560.75
2023-06-01T15:00:02.456Z,97561.78
2023-06-01T15:02:30.979Z,97559.56
2023-06-01T15:04:57.604Z,97561.53
2023-06-01T15:07:24.126Z,97550.06
2023-06-01T15:09:50.787Z,97555.97
2023-06-01T15:12:17.306Z,97555.63
2023-06-01T15:14:44.224Z,97549.34
2023-06-01T15:17:11.742Z,97551.81
2023-06-01T15:19:38.393Z,97544.88
2023-06-01T15:22:05.581Z,97553.88
2023-06-01T15:24:32.364Z,97543.13
2023-06-01T15:26:58.883Z,97538.19
2023-06-01T15:29:25.387Z,97540.59
2023-06-01T15:31:52.240Z,97534.09
2023-06-01T15:34:20.576Z,97539.56
2023-06-01T15:36:47.363Z,97531.03
2023-06-01T15:39:14.497Z,97533.03
2023-06-01T15:41:41.024Z,97529.56
2023-06-01T15:44:07.730Z,97525.16
2023-06-01T15:46:34.430Z,97534.94
2023-06-01T15:49:01.636Z,97528.47
2023-06-01T15:51:28.955Z,97527.72
2023-06-01T15:53:55.532Z,97524.63
2023-06-01T15:56:22.879Z,97521.22
2023-06-01T15:58:50.929Z,97526.94
2023-06-01T16:01:29.326Z,97522.16
2023-06-01T16:03:56.908Z,97522.13
2023-06-01T16:06:23.747Z,97519.81
2023-06-01T16:08:50.293Z,97516.53
2023-06-01T16:11:16.894Z,97522.25
2023-06-01T16:13:43.433Z,97518.47
2023-06-01T16:16:10.054Z,97517.47
2023-06-01T16:18:36.635Z,97510.56
2023-06-01T16:21:03.457Z,97515.88
2023-06-01T16:23:30.116Z,97514.78
2023-06-01T16:25:56.636Z,97515.38
2023-06-01T16:28:23.214Z,97515.91
2023-06-01T16:30:49.785Z,97513.75
2023-06-01T16:33:16.529Z,97519.22
2023-06-01T16:35:43.142Z,97514.84
2023-06-01T16:38:09.699Z,97512.13
2023-06-01T16:40:36.248Z,97510.22
2023-06-01T16:43:02.821Z,97511.00
2023-06-01T16:45:31.579Z,97514.84
2023-06-01T16:47:58.830Z,97508.84
2023-06-01T16:50:26.034Z,97513.25
2023-06-01T16:52:52.536Z,97511.56
2023-06-01T16:55:19.055Z,97492.47
2023-06-01T16:57:45.833Z,97504.50
2023-06-01T17:00:13.035Z,97501.78
2023-06-01T17:02:40.229Z,97499.06
2023-06-01T17:05:07.316Z,97507.25
2023-06-01T17:07:33.827Z,97505.63
2023-06-01T17:10:00.447Z,97501.75
2023-06-01T17:12:27.167Z,97501.66
2023-06-01T17:14:53.783Z,97506.50
2023-06-01T17:17:20.938Z,97501.00
2023-06-01T17:19:47.944Z,97499.06
2023-06-01T17:22:14.493Z,97495.47
2023-06-01T17:24:41.591Z,97505.34
2023-06-01T17:27:08.357Z,97504.38
2023-06-01T17:29:35.012Z,97507.09
2023-06-01T17:32:05.256Z,97501.75
2023-06-01T17:34:31.794Z,97501.13
2023-06-01T17:36:58.331Z,97507.88
2023-06-01T17:39:24.899Z,97501.31
2023-06-01T17:41:52.335Z,97505.06
2023-06-01T17:44:19.598Z,97503.78
2023-06-01T17:46:46.149Z,97512.69
2023-06-01T17:49:12.789Z,97503.72
2023-06-01T17:51:41.189Z,97505.84
2023-06-01T17:54:08.149Z,97508.47
2023-06-01T17:56:35.133Z,97496.69
2023-06-01T17:59:02.427Z,97492.94
2023-06-01T18:01:29.288Z,97500.00
2023-06-01T18:03:56.791Z,97507.22
2023-06-01T18:06:23.836Z,97496.44
2023-06-01T18:08:50.510Z,97487.47
2023-06-01T18:11:17.062Z,97487.81
2023-06-01T18:13:43.604Z,97493.84
2023-06-01T18:16:10.614Z,97488.09
2023-06-01T18:18:37.673Z,97490.47
2023-06-01T18:21:04.298Z,97491.88
2023-06-01T18:23:30.834Z,97496.72
2023-06-01T18:25:57.419Z,97498.97
2023-06-01T18:28:23.965Z,97494.91
2023-06-01T18:30:50.682Z,97500.19
2023-06-01T18:33:17.485Z,97504.53
2023-06-01T18:35:44.199Z,97501.72
2023-06-01T18:38:10.740Z,97498.66
2023-06-01T18:40:37.389Z,97504.06
2023-06-01T18:43:04.181Z,97503.38
2023-06-01T18:45:32.333Z,97503.16
2023-06-01T18:47:59.248Z,97509.06
2023-06-01T18:50:26.494Z,97509.38
2023-06-01T18:52:53.376Z,97510.16
2023-06-01T18:55:20.553Z,97501.16
2023-06-01T18:57:49.032Z,97513.47
2023-06-01T19:00:15.946Z,97510.25
2023-06-01T19:02:45.433Z,97507.78
2023-06-01T19:05:12.082Z,97509.41
2023-06-01T19:07:39.128Z,97514.03
2023-06-01T19:10:10.855Z,97514.66
2023-06-01T19:12:37.524Z,97515.75
2023-06-01T19:15:09.894Z,97521.84
2023-06-01T19:17:38.572Z,97521.69
2023-06-01T19:20:05.635Z,97522.94
2023-06-01T19:22:32.671Z,97528.94
2023-06-01T19:25:00.037Z,97530.13
2023-06-01T19:27:26.619Z,97528.59
2023-06-01T19:29:53.181Z,97524.53
2023-06-01T19:32:19.890Z,97527.16
2023-06-01T19:34:46.507Z,97533.22
2023-06-01T19:37:14.751Z,97533.75
2023-06-01T19:39:43.391Z,97532.19
2023-06-01T19:42:19.946Z,97548.00
2023-06-01T19:44:48.089Z,97541.44
2023-06-01T19:47:43.265Z,97544.41
2023-06-01T19:50:25.860Z,97550.94
2023-06-01T19:52:52.445Z,97544.59
2023-06-01T19:55:18.958Z,97538.22
2023-06-01T19:57:45.907Z,97546.94
2023-06-01T20:00:12.917Z,97551.91
2023-06-01T20:02:46.888Z,97547.97
2023-06-01T20:05:14.298Z,97550.66
2023-06-01T20:07:41.057Z,97553.34
2023-06-01T20:10:16.649Z,97552.34
2023-06-01T20:12:43.212Z,97551.28
2023-06-01T20:15:09.904Z,97555.63
2023-06-01T20:17:36.481Z,97552.75
2023-06-01T20:20:06.176Z,97553.38
2023-06-01T20:22:32.968Z,97555.59
2023-06-01T20:25:00.120Z,97555.59
2023-06-01T20:27:26.653Z,97559.72
2023-06-01T20:29:53.222Z,97555.16
2023-06-01T20:32:26.940Z,97553.53
2023-06-01T20:34:53.490Z,97550.75
2023-06-01T20:37:20.040Z,97548.72
2023-06-01T20:39:46.635Z,97547.31
2023-06-01T20:42:13.304Z,97550.94
2023-06-01T20:44:39.910Z,97545.63
2023-06-01T20:47:06.776Z,97551.91
2023-06-01T20:49:33.316Z,97546.97
2023-06-01T20:51:59.877Z,97549.88
2023-06-01T20:54:28.405Z,97548.47
2023-06-01T20:56:56.433Z,97551.91
2023-06-01T20:59:28.981Z,97545.94
2023-06-01T21:01:56.900Z,97545.13
2023-06-01T21:04:27.626Z,97553.06
2023-06-01T21:06:54.418Z,97552.09
2023-06-01T21:09:23.076Z,97546.81
2023-06-01T21:11:51.619Z,97553.06
2023-06-01T21:14:18.480Z,97559.63
2023-06-01T21:16:45.133Z,97551.25
2023-06-01T21:19:11.879Z,97557.44
2023-06-01T21:21:38.518Z,97565.13
2023-06-01T21:24:05.946Z,97572.59
2023-06-01T21:26:34.092Z,97564.91
2023-06-01T21:29:01.040Z,97564.78
2023-06-01T21:31:27.627Z,97565.00
2023-06-01T21:33:54.286Z,97564.19
2023-06-01T21:36:20.910Z,97566.75
2023-06-01T21:38:47.561Z,97567.28
2023-06-01T21:41:14.182Z,97561.56
2023-06-01T21:43:40.866Z,97567.66
2023-06-01T21:46:07.455Z,97565.28
2023-06-01T21:48:34.359Z,97571.09
2023-06-01T21:51:01.155Z,97568.34
2023-06-01T21:53:27.836Z,97569.38
2023-06-01T21:55:54.427Z,97578.63
2023-06-01T21:58:22.655Z,97577.22
2023-06-01T22:00:49.787Z,97573.38
2023-06-01T22:03:17.744Z,97568.78
2023-06-01T22:05:44.577Z,97580.38
2023-06-01T22:08:11.137Z,97578.22
2023-06-01T22:10:37.698Z,97574.38
2023-06-01T22:13:04.936Z,97583.56
2023-06-01T22:15:31.986Z,97583.59
2023-06-01T22:17:58.895Z,97581.53
2023-06-01T22:20:25.515Z,97586.09
2023-06-01T22:22:52.148Z,97579.75
2023-06-01T22:25:18.749Z,97577.63
2023-06-01T22:27:45.493Z,97576.88
2023-06-01T22:30:12.392Z,97575.06
2023-06-01T22:32:39.120Z,97578.69
2023-06-01T22:35:06.362Z,97580.06
2023-06-01T22:37:33.024Z,97580.13
2023-06-01T22:39:59.624Z,97579.69
2023-06-01T22:42:26.452Z,97579.13
2023-06-01T22:44:53.064Z,97589.00
2023-06-01T22:47:19.892Z,97589.59
2023-06-01T22:49:46.581Z,97591.66
2023-06-01T22:52:14.187Z,97584.31
2023-06-01T22:54:41.583Z,97584.03
2023-06-01T22:57:08.387Z,97593.91
2023-06-01T22:59:35.766Z,97588.06
2023-06-01T23:02:02.850Z,97582.56
2023-06-01T23:04:30.168Z,97588.56
2023-06-01T23:06:56.910Z,97585.88
2023-06-01T23:09:26.231Z,97596.94
2023-06-01T23:11:53.043Z,97585.22
2023-06-01T23:14:34.018Z,97587.38
2023-06-01T23:17:04.407Z,97595.09
2023-06-01T23:19:32.753Z,97593.22
2023-06-01T23:22:06.803Z,97593.00
2023-06-01T23:24:33.516Z,97598.75
2023-06-01T23:27:01.058Z,97589.00
2023-06-01T23:29:28.392Z,97596.84
2023-06-01T23:31:55.144Z,97591.38
2023-06-01T23:34:21.912Z,97589.50
2023-06-01T23:36:50.152Z,97594.38
2023-06-01T23:39:16.790Z,97589.81
2023-06-01T23:41:43.405Z,97585.06
2023-06-01T23:44:09.995Z,97588.94
2023-06-01T23:46:36.615Z,97593.28
2023-06-01T23:49:04.662Z,97587.59
2023-06-01T23:51:31.233Z,97592.09
2023-06-01T23:53:57.806Z,97590.53
2023-06-01T23:56:24.446Z,97586.66
2023-06-01T23:58:51.083Z,97596.56
